Terminal Aerodrome Forecast
Issued by NWS Topeka, KS

Home | Current Version | Previous Version | Text Only | Print | Product List | Glossary Off
Versions: 1 2 3 4 5 6 7 8 9 10 11 12 13 14 15 16 17 18 19 20 21 22

000
FTUS43 KTOP 251743
TAFTOP
TAF
KTOP 251743Z 2518/2618 02005KT P6SM BKN015 OVC025
     FM252100 04005KT P6SM VCTS SCT020 BKN040CB
     FM260100 05005KT P6SM SCT030 OVC040
     FM260900 06006KT 5SM -SHRA VCTS BKN015 OVC025CB
     FM261500 08005KT P6SM OVC040=

USA.gov is the U.S. government's official web portal to all federal, state and local government web resources and services.